createdAt,value
2023-03-14T00:00:18.916Z,98748.44
2023-03-14T00:02:45.357Z,98736.84
2023-03-14T00:05:12.027Z,98753.81
2023-03-14T00:07:40.256Z,98757.84
2023-03-14T00:10:10.595Z,98756.75
2023-03-14T00:12:37.022Z,98752.84
2023-03-14T00:15:04.509Z,98758.78
2023-03-14T00:17:31.752Z,98748.53
2023-03-14T00:19:58.181Z,98746.97
2023-03-14T00:22:24.659Z,98744.75
2023-03-14T00:24:51.299Z,98757.91
2023-03-14T00:27:17.763Z,98745.56
2023-03-14T00:29:44.985Z,98744.59
2023-03-14T00:32:11.871Z,98741.63
2023-03-14T00:34:40.811Z,98733.28
2023-03-14T00:37:07.203Z,98734.84
2023-03-14T00:39:33.660Z,98734.84
2023-03-14T00:42:00.117Z,98741.38
2023-03-14T00:44:27.701Z,98736.16
2023-03-14T00:46:54.688Z,98727.31
2023-03-14T00:49:21.125Z,98738.28
2023-03-14T00:51:47.562Z,98742.09
2023-03-14T00:54:14.285Z,98739.09
2023-03-14T00:56:40.727Z,98745.63
2023-03-14T00:59:07.099Z,98737.84
2023-03-14T01:01:33.763Z,98729.41
2023-03-14T01:04:00.271Z,98733.13
2023-03-14T01:06:29.113Z,98742.34
2023-03-14T01:08:56.896Z,98747.97
2023-03-14T01:11:29.275Z,98754.66
2023-03-14T01:13:58.421Z,98749.78
2023-03-14T01:16:27.583Z,98747.91
2023-03-14T01:18:54.589Z,98742.63
2023-03-14T01:21:24.666Z,98736.91
2023-03-14T01:23:53.284Z,98739.44
2023-03-14T01:26:22.339Z,98734.56
2023-03-14T01:28:50.462Z,98730.47
2023-03-14T01:31:18.868Z,98739.75
2023-03-14T01:33:46.875Z,98740.81
2023-03-14T01:36:14.474Z,98738.13
2023-03-14T01:38:42.776Z,98749.97
2023-03-14T01:41:21.462Z,98748.50
2023-03-14T01:43:48.381Z,98739.03
2023-03-14T01:46:21.411Z,98734.38
2023-03-14T01:48:52.856Z,98734.59
2023-03-14T01:51:21.796Z,98741.59
2023-03-14T01:53:50.802Z,98731.63
2023-03-14T01:56:19.360Z,98731.38
2023-03-14T01:58:51.384Z,98724.03
2023-03-14T02:01:22.342Z,98727.97
2023-03-14T02:03:55.554Z,98718.03
2023-03-14T02:06:28.222Z,98720.22
2023-03-14T02:08:57.800Z,98711.91
2023-03-14T02:11:29.950Z,98709.78
2023-03-14T02:14:06.559Z,98708.66
2023-03-14T02:16:53.136Z,98715.66
2023-03-14T02:19:53.098Z,98706.75
2023-03-14T02:22:42.800Z,98705.47
2023-03-14T02:25:33.359Z,98703.91
2023-03-14T02:28:01.551Z,98711.19
2023-03-14T02:30:31.831Z,98703.34
2023-03-14T02:33:03.873Z,98701.56
2023-03-14T02:35:43.034Z,98697.41
2023-03-14T02:38:29.667Z,98704.34
2023-03-14T02:40:56.128Z,98692.69
2023-03-14T02:43:22.685Z,98692.19
2023-03-14T02:45:56.459Z,98698.88
2023-03-14T02:48:39.247Z,98685.53
2023-03-14T02:51:05.903Z,98682.31
2023-03-14T02:53:37.536Z,98689.16
2023-03-14T02:56:09.960Z,98683.06
2023-03-14T02:58:37.842Z,98686.16
2023-03-14T03:01:22.777Z,98678.59
2023-03-14T03:03:49.286Z,98689.41
2023-03-14T03:06:16.105Z,98669.13
2023-03-14T03:08:42.716Z,98678.91
2023-03-14T03:11:09.165Z,98675.31
2023-03-14T03:13:36.021Z,98681.94
2023-03-14T03:16:04.876Z,98673.97
2023-03-14T03:18:31.621Z,98665.97
2023-03-14T03:21:04.648Z,98668.06
2023-03-14T03:23:31.068Z,98671.81
2023-03-14T03:25:58.400Z,98657.63
2023-03-14T03:28:24.908Z,98658.75
2023-03-14T03:30:52.250Z,98658.22
2023-03-14T03:33:18.845Z,98657.81
2023-03-14T03:35:48.349Z,98655.69
2023-03-14T03:38:18.086Z,98647.94
2023-03-14T03:40:46.167Z,98652.75
2023-03-14T03:43:12.677Z,98652.75
2023-03-14T03:45:42.494Z,98651.13
2023-03-14T03:48:09.181Z,98653.88
2023-03-14T03:50:36.115Z,98656.56
2023-03-14T03:53:03.245Z,98655.03
2023-03-14T03:55:29.720Z,98650.69
2023-03-14T03:57:56.239Z,98651.50
2023-03-14T04:00:22.808Z,98658.22
2023-03-14T04:02:49.308Z,98660.31
2023-03-14T04:05:17.592Z,98669.31
2023-03-14T04:07:53.679Z,98660.97
2023-03-14T04:10:24.416Z,98658.03
2023-03-14T04:13:16.893Z,98667.16
2023-03-14T04:15:48.527Z,98665.69
2023-03-14T04:18:21.608Z,98669.72
2023-03-14T04:20:55.682Z,98669.72
2023-03-14T04:23:26.852Z,98669.47
2023-03-14T04:25:54.839Z,98674.25
2023-03-14T04:28:22.747Z,98671.75
2023-03-14T04:30:49.266Z,98688.81
2023-03-14T04:33:20.988Z,98678.25
2023-03-14T04:35:55.443Z,98678.00
2023-03-14T04:38:22.193Z,98683.38
2023-03-14T04:40:49.631Z,98673.69
2023-03-14T04:43:18.669Z,98659.66
2023-03-14T04:45:50.588Z,98678.47
2023-03-14T04:48:18.036Z,98660.25
2023-03-14T04:50:44.505Z,98659.03
2023-03-14T04:53:11.000Z,98661.63
2023-03-14T04:55:37.965Z,98663.97
2023-03-14T04:58:05.073Z,98662.81
2023-03-14T05:00:31.696Z,98659.66
2023-03-14T05:03:08.356Z,98649.16
2023-03-14T05:05:48.353Z,98650.78
2023-03-14T05:08:40.644Z,98649.97
2023-03-14T05:11:23.480Z,98653.16
2023-03-14T05:14:01.062Z,98649.31
2023-03-14T05:16:41.815Z,98646.16
2023-03-14T05:19:23.192Z,98646.06
2023-03-14T05:22:11.845Z,98642.38
2023-03-14T05:24:57.616Z,98646.38
2023-03-14T05:27:32.716Z,98646.38
2023-03-14T05:30:17.866Z,98648.56
2023-03-14T05:33:07.503Z,98656.16
2023-03-14T05:35:44.249Z,98660.38
2023-03-14T05:38:20.832Z,98670.88
2023-03-14T05:41:19.422Z,98675.09
2023-03-14T05:44:15.041Z,98686.91
2023-03-14T05:46:56.413Z,98695.44
2023-03-14T05:49:49.501Z,98713.91
2023-03-14T05:52:34.508Z,98723.81
2023-03-14T05:55:04.110Z,98726.06
2023-03-14T05:57:54.922Z,98739.13
2023-03-14T06:00:44.154Z,98736.72
2023-03-14T06:03:30.696Z,98756.44
2023-03-14T06:05:57.904Z,98761.97
2023-03-14T06:08:25.604Z,98761.81
2023-03-14T06:10:52.774Z,98768.59
2023-03-14T06:13:24.231Z,98774.44
2023-03-14T06:15:50.642Z,98783.66
2023-03-14T06:18:17.083Z,98789.84
2023-03-14T06:20:43.789Z,98785.88
2023-03-14T06:23:14.117Z,98795.34
2023-03-14T06:25:41.395Z,98796.16
2023-03-14T06:28:07.872Z,98799.75
2023-03-14T06:30:35.312Z,98822.28
2023-03-14T06:33:02.709Z,98828.34
2023-03-14T06:35:29.490Z,98840.94
2023-03-14T06:37:56.192Z,98847.22
2023-03-14T06:40:23.333Z,98855.94
2023-03-14T06:42:57.187Z,98862.81
2023-03-14T06:45:26.040Z,98874.22
2023-03-14T06:47:53.589Z,98884.25
2023-03-14T06:50:24.813Z,98885.94
2023-03-14T06:52:51.554Z,98892.91
2023-03-14T06:55:22.708Z,98897.91
2023-03-14T06:57:49.981Z,98914.63
2023-03-14T07:00:18.223Z,98912.38
2023-03-14T07:02:44.770Z,98918.44
2023-03-14T07:05:26.577Z,98927.50
2023-03-14T07:07:53.250Z,98939.59
2023-03-14T07:10:19.762Z,98947.34
2023-03-14T07:12:46.238Z,98968.31
2023-03-14T07:15:18.685Z,98981.44
2023-03-14T07:17:48.955Z,98987.41
2023-03-14T07:20:15.762Z,98992.16
2023-03-14T07:22:42.417Z,99002.88
2023-03-14T07:25:12.585Z,99024.59
2023-03-14T07:27:39.134Z,99037.88
2023-03-14T07:30:06.654Z,99070.78
2023-03-14T07:32:33.576Z,99082.19
2023-03-14T07:35:00.095Z,99098.16
2023-03-14T07:37:26.558Z,99110.41
2023-03-14T07:39:52.996Z,99132.66
2023-03-14T07:42:23.322Z,99139.53
2023-03-14T07:45:12.393Z,99145.56
2023-03-14T07:47:39.203Z,99164.69
2023-03-14T07:50:06.370Z,99166.53
2023-03-14T07:52:32.811Z,99176.44
2023-03-14T07:54:59.197Z,99188.59
2023-03-14T07:57:25.704Z,99197.81
2023-03-14T07:59:52.246Z,99204.81
2023-03-14T08:02:21.195Z,99218.41
2023-03-14T08:04:47.595Z,99221.91
2023-03-14T08:07:14.022Z,99236.72
2023-03-14T08:09:40.482Z,99245.16
2023-03-14T08:12:07.331Z,99252.94
2023-03-14T08:14:33.699Z,99270.63
2023-03-14T08:17:00.157Z,99279.25
2023-03-14T08:19:26.688Z,99293.06
2023-03-14T08:21:53.121Z,99299.25
2023-03-14T08:24:19.535Z,99306.69
2023-03-14T08:26:46.087Z,99313.06
2023-03-14T08:29:13.720Z,99330.34
2023-03-14T08:31:40.162Z,99328.91
2023-03-14T08:34:07.799Z,99338.34
2023-03-14T08:36:34.841Z,99349.22
2023-03-14T08:39:01.379Z,99360.72
2023-03-14T08:41:27.951Z,99383.13
2023-03-14T08:43:54.423Z,99382.97
2023-03-14T08:46:20.832Z,99398.00
2023-03-14T08:48:47.906Z,99408.50
2023-03-14T08:51:15.062Z,99414.25
2023-03-14T08:53:42.489Z,99425.19
2023-03-14T08:56:10.871Z,99435.91
2023-03-14T08:58:39.012Z,99444.34
2023-03-14T09:01:10.245Z,99443.72
2023-03-14T09:03:37.297Z,99469.66
2023-03-14T09:06:09.500Z,99469.47
2023-03-14T09:08:39.229Z,99474.19
2023-03-14T09:11:09.029Z,99491.69
2023-03-14T09:13:35.552Z,99490.03
2023-03-14T09:16:02.368Z,99506.53
2023-03-14T09:18:29.885Z,99508.38
2023-03-14T09:20:56.889Z,99517.22
2023-03-14T09:23:23.400Z,99519.28
2023-03-14T09:25:49.861Z,99532.66
2023-03-14T09:28:16.375Z,99556.75
2023-03-14T09:30:42.757Z,99552.63
2023-03-14T09:33:09.315Z,99570.09
2023-03-14T09:35:35.873Z,99583.06
2023-03-14T09:38:02.568Z,99606.97
2023-03-14T09:40:34.855Z,99616.78
2023-03-14T09:43:01.416Z,99620.72
2023-03-14T09:45:32.369Z,99622.34
2023-03-14T09:48:00.247Z,99633.09
2023-03-14T09:50:31.719Z,99638.69
2023-03-14T09:53:04.412Z,99647.34
2023-03-14T09:55:31.628Z,99648.34
2023-03-14T09:58:03.591Z,99649.38
2023-03-14T10:00:32.401Z,99657.25
2023-03-14T10:03:14.085Z,99670.44
2023-03-14T10:05:42.500Z,99675.59
2023-03-14T10:08:13.454Z,99677.69
2023-03-14T10:10:40.405Z,99687.78
2023-03-14T10:13:25.072Z,99696.66
2023-03-14T10:15:55.719Z,99725.38
2023-03-14T10:18:25.393Z,99737.03
2023-03-14T10:21:04.184Z,99741.94
2023-03-14T10:23:34.128Z,99758.09
2023-03-14T10:26:13.669Z,99749.91
2023-03-14T10:28:49.000Z,99763.75
2023-03-14T10:31:16.030Z,99777.78
2023-03-14T10:33:42.955Z,99778.81
2023-03-14T10:36:15.749Z,99787.50
2023-03-14T10:38:43.329Z,99804.22
2023-03-14T10:41:26.471Z,99822.97
2023-03-14T10:43:59.633Z,99823.44
2023-03-14T10:46:31.116Z,99824.72
2023-03-14T10:49:29.349Z,99835.88
2023-03-14T10:51:56.017Z,99861.25
2023-03-14T10:54:24.856Z,99858.78
2023-03-14T10:57:01.752Z,99872.78
2023-03-14T10:59:38.316Z,99879.41
2023-03-14T11:02:15.908Z,99893.69
2023-03-14T11:05:05.179Z,99904.44
2023-03-14T11:07:40.353Z,99914.75
2023-03-14T11:10:17.682Z,99906.94
2023-03-14T11:13:09.019Z,99929.66
2023-03-14T11:15:41.764Z,99934.63
2023-03-14T11:18:16.988Z,99936.91
2023-03-14T11:21:19.264Z,99953.00
2023-03-14T11:24:13.927Z,99957.16
2023-03-14T11:26:46.354Z,99968.47
2023-03-14T11:29:32.532Z,99983.31
2023-03-14T11:32:03.997Z,99992.84
2023-03-14T11:34:54.492Z,99995.94
2023-03-14T11:37:45.207Z,100005.66
2023-03-14T11:40:11.588Z,100022.59
2023-03-14T11:42:41.215Z,100004.84
2023-03-14T11:45:19.996Z,100033.56
2023-03-14T11:47:56.627Z,100037.09
2023-03-14T11:50:27.939Z,100048.38
2023-03-14T11:53:15.939Z,100045.88
2023-03-14T11:55:43.936Z,100053.34
2023-03-14T11:58:19.024Z,100070.00
2023-03-14T12:00:49.352Z,100075.81
2023-03-14T12:03:27.331Z,100073.59
2023-03-14T12:06:17.910Z,100082.03
2023-03-14T12:08:53.215Z,100087.22
2023-03-14T12:11:36.822Z,100100.03
2023-03-14T12:14:04.209Z,100101.28
2023-03-14T12:16:40.419Z,100108.03
2023-03-14T12:19:19.740Z,100121.28
2023-03-14T12:21:54.039Z,100125.44
2023-03-14T12:24:25.119Z,100127.06
2023-03-14T12:26:55.911Z,100129.56
2023-03-14T12:29:22.732Z,100128.34
2023-03-14T12:31:50.745Z,100141.38
2023-03-14T12:34:17.245Z,100146.31
2023-03-14T12:36:54.505Z,100144.63
2023-03-14T12:39:38.541Z,100155.97
2023-03-14T12:42:11.536Z,100162.38
2023-03-14T12:44:49.403Z,100168.13
2023-03-14T12:47:18.829Z,100169.00
2023-03-14T12:49:50.598Z,100170.91
2023-03-14T12:52:23.014Z,100181.13
2023-03-14T12:55:11.060Z,100184.19
2023-03-14T12:58:00.519Z,100182.66
2023-03-14T13:00:40.690Z,100190.44
2023-03-14T13:03:19.952Z,100196.97
2023-03-14T13:05:59.334Z,100206.53
2023-03-14T13:08:40.789Z,100206.69
2023-03-14T13:11:12.868Z,100215.88
2023-03-14T13:13:47.646Z,100227.13
2023-03-14T13:16:19.216Z,100241.16
2023-03-14T13:18:52.570Z,100242.09
2023-03-14T13:21:21.863Z,100246.06
2023-03-14T13:23:59.215Z,100248.88
2023-03-14T13:26:35.048Z,100264.53
2023-03-14T13:29:15.988Z,100274.00
2023-03-14T13:31:46.626Z,100279.69
2023-03-14T13:34:13.208Z,100285.53
2023-03-14T13:36:39.887Z,100285.16
2023-03-14T13:39:13.712Z,100291.94
2023-03-14T13:41:41.627Z,100314.69
2023-03-14T13:44:15.014Z,100320.94
2023-03-14T13:46:42.123Z,100316.94
2023-03-14T13:49:18.010Z,100322.97
2023-03-14T13:51:44.493Z,100321.56
2023-03-14T13:54:19.600Z,100333.56
2023-03-14T13:56:46.660Z,100344.25
2023-03-14T13:59:27.023Z,100338.06
2023-03-14T14:02:00.710Z,100348.78
2023-03-14T14:04:27.982Z,100355.53
2023-03-14T14:07:01.440Z,100360.63
2023-03-14T14:09:31.333Z,100368.94
2023-03-14T14:12:15.589Z,100373.59
2023-03-14T14:15:03.601Z,100373.06
2023-03-14T14:17:47.581Z,100377.06
2023-03-14T14:20:38.747Z,100391.31
2023-03-14T14:23:07.455Z,100396.69
2023-03-14T14:25:34.341Z,100392.25
2023-03-14T14:28:23.017Z,100417.84
2023-03-14T14:31:26.583Z,100413.81
2023-03-14T14:33:58.506Z,100428.13
2023-03-14T14:36:30.465Z,100431.38
2023-03-14T14:39:14.846Z,100435.06
2023-03-14T14:41:42.888Z,100449.00
2023-03-14T14:44:14.815Z,100441.63
2023-03-14T14:46:41.443Z,100448.44
2023-03-14T14:49:15.117Z,100458.72
2023-03-14T14:51:45.271Z,100454.63
2023-03-14T14:54:17.726Z,100473.50
2023-03-14T14:56:52.951Z,100470.34
2023-03-14T14:59:43.847Z,100482.19
2023-03-14T15:02:41.027Z,100480.78
2023-03-14T15:05:14.036Z,100493.47
2023-03-14T15:07:40.514Z,100501.84
2023-03-14T15:10:07.666Z,100492.72
2023-03-14T15:12:34.048Z,100509.25
2023-03-14T15:15:00.450Z,100504.41
2023-03-14T15:17:26.994Z,100503.97
2023-03-14T15:19:53.459Z,100512.03
2023-03-14T15:22:21.011Z,100509.63
2023-03-14T15:24:47.537Z,100515.16
2023-03-14T15:27:16.125Z,100521.00
2023-03-14T15:29:42.864Z,100523.94
2023-03-14T15:32:14.320Z,100529.13
2023-03-14T15:34:41.595Z,100534.38
2023-03-14T15:37:16.882Z,100546.38
2023-03-14T15:39:43.935Z,100546.28
2023-03-14T15:42:10.557Z,100554.13
2023-03-14T15:44:37.132Z,100557.81
2023-03-14T15:47:04.027Z,100559.84
2023-03-14T15:49:30.496Z,100567.03
2023-03-14T15:51:58.088Z,100574.91
2023-03-14T15:54:29.092Z,100585.91
2023-03-14T15:56:56.617Z,100578.59
2023-03-14T15:59:24.314Z,100590.88
2023-03-14T16:01:50.819Z,100585.38
2023-03-14T16:04:17.437Z,100600.63
2023-03-14T16:06:45.428Z,100603.25
2023-03-14T16:09:15.090Z,100596.78
2023-03-14T16:11:41.544Z,100610.50
2023-03-14T16:14:08.032Z,100606.03
2023-03-14T16:16:34.487Z,100610.66
2023-03-14T16:19:00.930Z,100615.38
2023-03-14T16:21:27.449Z,100618.41
2023-03-14T16:23:53.896Z,100626.94
2023-03-14T16:26:20.846Z,100641.97
2023-03-14T16:28:48.250Z,100633.78
2023-03-14T16:31:17.932Z,100639.22
2023-03-14T16:33:44.882Z,100644.78
2023-03-14T16:36:12.852Z,100663.38
2023-03-14T16:38:42.366Z,100651.69
2023-03-14T16:41:16.456Z,100649.31
2023-03-14T16:43:43.452Z,100654.66
2023-03-14T16:46:17.007Z,100655.97
2023-03-14T16:48:44.214Z,100666.41
2023-03-14T16:51:10.713Z,100673.97
2023-03-14T16:53:37.563Z,100673.72
2023-03-14T16:56:04.345Z,100676.59
2023-03-14T16:58:31.852Z,100683.59
2023-03-14T17:00:58.789Z,100683.81
2023-03-14T17:03:27.620Z,100691.91
2023-03-14T17:05:54.080Z,100689.78
2023-03-14T17:08:21.128Z,100696.94
2023-03-14T17:10:49.206Z,100704.19
2023-03-14T17:13:15.930Z,100707.81
2023-03-14T17:15:53.298Z,100714.53
2023-03-14T17:18:19.766Z,100717.00
2023-03-14T17:20:46.135Z,100717.94
2023-03-14T17:23:12.533Z,100732.63
2023-03-14T17:25:39.119Z,100731.78
2023-03-14T17:28:06.423Z,100736.16
2023-03-14T17:30:33.423Z,100741.19
2023-03-14T17:33:00.056Z,100740.25
2023-03-14T17:35:27.028Z,100748.13
2023-03-14T17:37:53.554Z,100747.63
2023-03-14T17:40:19.985Z,100758.69
2023-03-14T17:42:46.492Z,100763.91
2023-03-14T17:45:12.896Z,100767.06
2023-03-14T17:47:39.365Z,100777.59
2023-03-14T17:50:06.719Z,100781.78
2023-03-14T17:52:34.986Z,100788.31
2023-03-14T17:55:02.496Z,100791.31
2023-03-14T17:57:29.370Z,100806.41
2023-03-14T17:59:56.114Z,100807.75
2023-03-14T18:02:24.049Z,100807.88
2023-03-14T18:04:54.058Z,100806.53
2023-03-14T18:07:20.939Z,100810.03
2023-03-14T18:09:47.455Z,100806.72
2023-03-14T18:12:14.091Z,100811.72
2023-03-14T18:14:44.241Z,100819.91
2023-03-14T18:17:15.202Z,100824.75
2023-03-14T18:19:42.384Z,100817.22
2023-03-14T18:22:09.080Z,100825.75
2023-03-14T18:24:35.859Z,100823.25
2023-03-14T18:27:02.285Z,100822.91
2023-03-14T18:29:28.692Z,100832.28
2023-03-14T18:31:56.788Z,100835.31
2023-03-14T18:34:23.647Z,100836.47
2023-03-14T18:36:50.352Z,100840.16
2023-03-14T18:39:16.806Z,100834.94
2023-03-14T18:41:43.324Z,100836.66
2023-03-14T18:44:11.500Z,100844.00
2023-03-14T18:46:38.182Z,100838.81
2023-03-14T18:49:04.721Z,100839.16
2023-03-14T18:51:33.139Z,100835.84
2023-03-14T18:54:09.383Z,100837.00
2023-03-14T18:56:37.371Z,100843.00
2023-03-14T18:59:03.840Z,100844.00
2023-03-14T19:01:34.056Z,100842.00
2023-03-14T19:04:01.373Z,100839.66
2023-03-14T19:06:31.760Z,100844.00
2023-03-14T19:08:58.396Z,100844.69
2023-03-14T19:11:26.583Z,100840.31
2023-03-14T19:13:54.865Z,100837.31
2023-03-14T19:16:27.756Z,100837.63
2023-03-14T19:18:55.321Z,100848.34
2023-03-14T19:21:30.724Z,100850.19
2023-03-14T19:23:57.285Z,100847.00
2023-03-14T19:26:24.491Z,100856.34
2023-03-14T19:28:52.886Z,100853.50
2023-03-14T19:31:19.996Z,100849.19
2023-03-14T19:33:46.995Z,100847.34
2023-03-14T19:36:22.993Z,100845.19
2023-03-14T19:38:50.757Z,100848.00
2023-03-14T19:41:17.216Z,100854.56
2023-03-14T19:43:43.645Z,100854.38
2023-03-14T19:46:10.382Z,100854.88
2023-03-14T19:48:37.557Z,100863.56
2023-03-14T19:51:04.348Z,100874.13
2023-03-14T19:53:31.405Z,100876.78
2023-03-14T19:55:58.003Z,100871.59
2023-03-14T19:58:24.870Z,100872.28
2023-03-14T20:00:51.766Z,100872.28
2023-03-14T20:03:18.338Z,100870.13
2023-03-14T20:05:44.769Z,100875.47
2023-03-14T20:08:11.503Z,100872.09
2023-03-14T20:10:38.263Z,100877.63
2023-03-14T20:13:15.428Z,100871.09
2023-03-14T20:15:42.156Z,100890.19
2023-03-14T20:18:08.675Z,100891.66
2023-03-14T20:20:35.100Z,100891.84
2023-03-14T20:23:01.456Z,100895.34
2023-03-14T20:25:29.012Z,100901.88
2023-03-14T20:27:55.624Z,100893.19
2023-03-14T20:30:23.515Z,100891.53
2023-03-14T20:32:50.915Z,100898.22
2023-03-14T20:35:23.581Z,100896.19
2023-03-14T20:37:54.364Z,100895.03
2023-03-14T20:40:21.082Z,100896.19
2023-03-14T20:42:47.604Z,100896.88
2023-03-14T20:45:14.754Z,100890.34
2023-03-14T20:47:41.415Z,100893.84
2023-03-14T20:50:09.214Z,100895.84
2023-03-14T20:52:35.793Z,100905.56
2023-03-14T20:55:02.421Z,100900.06
2023-03-14T20:57:28.825Z,100897.53
2023-03-14T20:59:55.282Z,100904.91
2023-03-14T21:02:21.804Z,100906.22
2023-03-14T21:04:48.338Z,100904.53
2023-03-14T21:07:14.863Z,100914.91
2023-03-14T21:09:41.287Z,100924.78
2023-03-14T21:12:08.015Z,100930.63
2023-03-14T21:14:34.507Z,100936.00
2023-03-14T21:17:01.379Z,100948.66
2023-03-14T21:19:30.891Z,100956.84
2023-03-14T21:21:58.557Z,100965.34
2023-03-14T21:24:25.628Z,100956.28
2023-03-14T21:26:53.424Z,100961.78
2023-03-14T21:29:24.134Z,100954.22
2023-03-14T21:31:51.231Z,100958.28
2023-03-14T21:34:20.935Z,100966.63
2023-03-14T21:36:48.877Z,100976.34
2023-03-14T21:39:15.920Z,100982.66
2023-03-14T21:41:42.457Z,100980.69
2023-03-14T21:44:09.129Z,100965.50
2023-03-14T21:46:36.417Z,100964.41
2023-03-14T21:49:03.860Z,100972.03
2023-03-14T21:51:31.191Z,100982.34
2023-03-14T21:53:57.600Z,100979.44
2023-03-14T21:56:26.887Z,100988.28
2023-03-14T21:58:59.002Z,101004.69
2023-03-14T22:01:25.516Z,101017.03
2023-03-14T22:03:53.398Z,101012.56
2023-03-14T22:06:19.802Z,101021.16
2023-03-14T22:08:46.209Z,101010.19
2023-03-14T22:11:12.637Z,101022.00
2023-03-14T22:13:39.036Z,101013.94
2023-03-14T22:16:05.912Z,101007.97
2023-03-14T22:18:32.369Z,101008.66
2023-03-14T22:20:58.824Z,101016.34
2023-03-14T22:23:25.236Z,101009.03
2023-03-14T22:25:51.739Z,101013.91
2023-03-14T22:28:18.713Z,101021.28
2023-03-14T22:30:49.288Z,101026.47
2023-03-14T22:33:17.454Z,101029.97
2023-03-14T22:35:49.019Z,101027.31
2023-03-14T22:38:15.702Z,101029.75
2023-03-14T22:40:42.076Z,101031.22
2023-03-14T22:43:08.477Z,101061.31
2023-03-14T22:45:35.012Z,101057.66
2023-03-14T22:48:01.619Z,101053.84
2023-03-14T22:50:28.063Z,101058.94
2023-03-14T22:52:54.822Z,101060.09
2023-03-14T22:55:21.280Z,101062.78
2023-03-14T22:57:51.669Z,101068.47
2023-03-14T23:00:18.936Z,101065.19
2023-03-14T23:02:45.396Z,101073.72
2023-03-14T23:05:11.927Z,101069.84
2023-03-14T23:07:38.353Z,101067.72
2023-03-14T23:10:05.408Z,101072.22
2023-03-14T23:12:31.824Z,101068.31
2023-03-14T23:14:58.285Z,101074.41
2023-03-14T23:17:25.425Z,101083.13
2023-03-14T23:19:53.511Z,101079.31
2023-03-14T23:22:20.351Z,101080.81
2023-03-14T23:24:48.501Z,101075.13
2023-03-14T23:27:17.930Z,101087.44
2023-03-14T23:29:47.422Z,101085.78
2023-03-14T23:32:15.426Z,101090.66
2023-03-14T23:34:43.134Z,101090.66
2023-03-14T23:37:13.685Z,101089.53
2023-03-14T23:39:43.806Z,101090.38
2023-03-14T23:42:10.360Z,101086.88
2023-03-14T23:44:36.933Z,101088.00
2023-03-14T23:47:03.564Z,101078.16
2023-03-14T23:49:30.364Z,101077.78
2023-03-14T23:51:56.801Z,101083.13
2023-03-14T23:54:23.199Z,101079.44
2023-03-14T23:56:49.605Z,101088.44
2023-03-14T23:59:15.980Z,101088.44
